sensor_id;sensor_type;location;lat;lon;timestamp;P1;durP1;ratioP1;P2;durP2;ratioP2
36353;SDS011;22383;51.114;13.666;2023-05-07T00:00:22;22.55;;;9.13;;
36353;SDS011;22383;51.114;13.666;2023-05-07T00:02:50;25.35;;;8.38;;
36353;SDS011;22383;51.114;13.666;2023-05-07T00:05:17;24.65;;;7.63;;
36353;SDS011;22383;51.114;13.666;2023-05-07T00:07:46;21.13;;;8.63;;
36353;SDS011;22383;51.114;13.666;2023-05-07T00:10:13;22.85;;;8.13;;
36353;SDS011;22383;51.114;13.666;2023-05-07T00:12:42;27.55;;;8.43;;
36353;SDS011;22383;51.114;13.666;2023-05-07T00:15:09;20.15;;;8.25;;
36353;SDS011;22383;51.114;13.666;2023-05-07T00:17:38;23.25;;;9.10;;
36353;SDS011;22383;51.114;13.666;2023-05-07T00:20:08;24.60;;;9.32;;
36353;SDS011;22383;51.114;13.666;2023-05-07T00:22:37;24.95;;;9.38;;
36353;SDS011;22383;51.114;13.666;2023-05-07T00:25:04;27.83;;;10.60;;
36353;SDS011;22383;51.114;13.666;2023-05-07T00:27:35;34.67;;;11.38;;
36353;SDS011;22383;51.114;13.666;2023-05-07T00:30:11;27.02;;;10.30;;
36353;SDS011;22383;51.114;13.666;2023-05-07T00:32:39;31.77;;;10.85;;
36353;SDS011;22383;51.114;13.666;2023-05-07T00:35:08;23.17;;;10.00;;
36353;SDS011;22383;51.114;13.666;2023-05-07T00:37:36;29.52;;;10.57;;
36353;SDS011;22383;51.114;13.666;2023-05-07T00:40:04;30.35;;;11.57;;
36353;SDS011;22383;51.114;13.666;2023-05-07T00:42:34;29.63;;;9.68;;
36353;SDS011;22383;51.114;13.666;2023-05-07T00:45:02;25.98;;;10.27;;
36353;SDS011;22383;51.114;13.666;2023-05-07T00:47:49;34.35;;;11.57;;
36353;SDS011;22383;51.114;13.666;2023-05-07T00:50:26;27.65;;;10.93;;
36353;SDS011;22383;51.114;13.666;2023-05-07T00:52:54;26.02;;;11.25;;
36353;SDS011;22383;51.114;13.666;2023-05-07T00:55:29;26.33;;;10.70;;
36353;SDS011;22383;51.114;13.666;2023-05-07T00:58:12;26.73;;;11.02;;
36353;SDS011;22383;51.114;13.666;2023-05-07T01:00:44;27.23;;;10.07;;
36353;SDS011;22383;51.114;13.666;2023-05-07T01:03:14;25.13;;;10.75;;
36353;SDS011;22383;51.114;13.666;2023-05-07T01:05:41;30.77;;;10.70;;
36353;SDS011;22383;51.114;13.666;2023-05-07T01:08:15;29.25;;;9.57;;
36353;SDS011;22383;51.114;13.666;2023-05-07T01:10:47;24.55;;;9.95;;
36353;SDS011;22383;51.114;13.666;2023-05-07T01:13:22;25.10;;;10.18;;
36353;SDS011;22383;51.114;13.666;2023-05-07T01:15:58;24.48;;;9.50;;
36353;SDS011;22383;51.114;13.666;2023-05-07T01:18:25;20.60;;;9.43;;
36353;SDS011;22383;51.114;13.666;2023-05-07T01:20:59;28.77;;;10.25;;
36353;SDS011;22383;51.114;13.666;2023-05-07T01:23:29;22.27;;;10.25;;
36353;SDS011;22383;51.114;13.666;2023-05-07T01:26:06;20.42;;;8.80;;
36353;SDS011;22383;51.114;13.666;2023-05-07T01:28:40;21.08;;;9.32;;
36353;SDS011;22383;51.114;13.666;2023-05-07T01:31:11;26.85;;;9.85;;
36353;SDS011;22383;51.114;13.666;2023-05-07T01:33:41;25.05;;;9.88;;
36353;SDS011;22383;51.114;13.666;2023-05-07T01:36:11;25.83;;;9.80;;
36353;SDS011;22383;51.114;13.666;2023-05-07T01:38:47;22.88;;;9.32;;
36353;SDS011;22383;51.114;13.666;2023-05-07T01:41:23;21.02;;;9.23;;
36353;SDS011;22383;51.114;13.666;2023-05-07T01:44:03;23.08;;;9.65;;
36353;SDS011;22383;51.114;13.666;2023-05-07T01:46:37;24.05;;;10.07;;
36353;SDS011;22383;51.114;13.666;2023-05-07T01:49:04;24.15;;;10.27;;
36353;SDS011;22383;51.114;13.666;2023-05-07T01:51:34;21.85;;;8.63;;
36353;SDS011;22383;51.114;13.666;2023-05-07T01:54:04;24.52;;;8.75;;
36353;SDS011;22383;51.114;13.666;2023-05-07T01:56:32;22.05;;;7.80;;
36353;SDS011;22383;51.114;13.666;2023-05-07T02:01:28;20.13;;;9.13;;
36353;SDS011;22383;51.114;13.666;2023-05-07T02:03:55;24.83;;;8.80;;
36353;SDS011;22383;51.114;13.666;2023-05-07T02:06:41;21.88;;;9.23;;
36353;SDS011;22383;51.114;13.666;2023-05-07T02:09:10;28.95;;;10.02;;
36353;SDS011;22383;51.114;13.666;2023-05-07T02:11:49;19.27;;;8.57;;
36353;SDS011;22383;51.114;13.666;2023-05-07T02:14:18;21.90;;;9.65;;
36353;SDS011;22383;51.114;13.666;2023-05-07T02:16:53;28.77;;;11.65;;
36353;SDS011;22383;51.114;13.666;2023-05-07T02:19:20;22.65;;;9.90;;
36353;SDS011;22383;51.114;13.666;2023-05-07T02:24:32;25.25;;;10.80;;
36353;SDS011;22383;51.114;13.666;2023-05-07T02:27:02;25.83;;;9.63;;
36353;SDS011;22383;51.114;13.666;2023-05-07T02:29:35;25.73;;;10.10;;
36353;SDS011;22383;51.114;13.666;2023-05-07T02:32:08;22.13;;;10.18;;
36353;SDS011;22383;51.114;13.666;2023-05-07T02:34:38;26.17;;;9.60;;
36353;SDS011;22383;51.114;13.666;2023-05-07T02:37:13;27.20;;;10.20;;
36353;SDS011;22383;51.114;13.666;2023-05-07T02:39:46;31.00;;;9.65;;
36353;SDS011;22383;51.114;13.666;2023-05-07T02:42:13;25.20;;;9.75;;
36353;SDS011;22383;51.114;13.666;2023-05-07T02:44:40;24.55;;;9.20;;
36353;SDS011;22383;51.114;13.666;2023-05-07T02:47:07;24.30;;;9.52;;
36353;SDS011;22383;51.114;13.666;2023-05-07T02:49:40;27.27;;;9.40;;
36353;SDS011;22383;51.114;13.666;2023-05-07T02:52:10;22.58;;;8.60;;
36353;SDS011;22383;51.114;13.666;2023-05-07T02:54:37;26.48;;;9.40;;
36353;SDS011;22383;51.114;13.666;2023-05-07T02:57:07;25.63;;;8.43;;
36353;SDS011;22383;51.114;13.666;2023-05-07T02:59:34;24.27;;;9.80;;
36353;SDS011;22383;51.114;13.666;2023-05-07T03:04:29;22.30;;;8.77;;
36353;SDS011;22383;51.114;13.666;2023-05-07T03:06:57;21.42;;;8.80;;
36353;SDS011;22383;51.114;13.666;2023-05-07T03:09:30;23.15;;;9.27;;
36353;SDS011;22383;51.114;13.666;2023-05-07T03:12:18;20.73;;;8.73;;
36353;SDS011;22383;51.114;13.666;2023-05-07T03:14:45;24.92;;;9.95;;
36353;SDS011;22383;51.114;13.666;2023-05-07T03:17:14;23.27;;;8.43;;
36353;SDS011;22383;51.114;13.666;2023-05-07T03:19:47;20.77;;;7.80;;
36353;SDS011;22383;51.114;13.666;2023-05-07T03:22:18;22.40;;;8.63;;
36353;SDS011;22383;51.114;13.666;2023-05-07T03:24:55;23.50;;;9.13;;
36353;SDS011;22383;51.114;13.666;2023-05-07T03:27:22;23.67;;;9.35;;
36353;SDS011;22383;51.114;13.666;2023-05-07T03:29:51;21.27;;;10.65;;
36353;SDS011;22383;51.114;13.666;2023-05-07T03:32:23;26.50;;;9.60;;
36353;SDS011;22383;51.114;13.666;2023-05-07T03:34:50;27.88;;;7.85;;
36353;SDS011;22383;51.114;13.666;2023-05-07T03:37:20;20.45;;;8.05;;
36353;SDS011;22383;51.114;13.666;2023-05-07T03:40:00;23.88;;;9.25;;
36353;SDS011;22383;51.114;13.666;2023-05-07T03:42:30;25.08;;;8.80;;
36353;SDS011;22383;51.114;13.666;2023-05-07T03:45:03;23.20;;;9.90;;
36353;SDS011;22383;51.114;13.666;2023-05-07T03:47:34;29.23;;;9.95;;
36353;SDS011;22383;51.114;13.666;2023-05-07T03:50:07;29.02;;;10.15;;
36353;SDS011;22383;51.114;13.666;2023-05-07T03:52:36;24.40;;;9.25;;
36353;SDS011;22383;51.114;13.666;2023-05-07T03:55:05;28.02;;;10.18;;
36353;SDS011;22383;51.114;13.666;2023-05-07T03:57:41;25.17;;;9.00;;
36353;SDS011;22383;51.114;13.666;2023-05-07T04:00:09;24.52;;;9.10;;
36353;SDS011;22383;51.114;13.666;2023-05-07T04:02:46;28.75;;;9.77;;
36353;SDS011;22383;51.114;13.666;2023-05-07T04:05:27;27.58;;;11.02;;
36353;SDS011;22383;51.114;13.666;2023-05-07T04:07:59;22.88;;;9.00;;
36353;SDS011;22383;51.114;13.666;2023-05-07T04:10:34;29.45;;;9.93;;
36353;SDS011;22383;51.114;13.666;2023-05-07T04:13:05;25.75;;;10.65;;
36353;SDS011;22383;51.114;13.666;2023-05-07T04:15:34;24.58;;;10.35;;
36353;SDS011;22383;51.114;13.666;2023-05-07T04:18:05;26.02;;;8.65;;
36353;SDS011;22383;51.114;13.666;2023-05-07T04:20:33;29.77;;;11.35;;
36353;SDS011;22383;51.114;13.666;2023-05-07T04:23:05;26.52;;;9.50;;
36353;SDS011;22383;51.114;13.666;2023-05-07T04:25:34;25.95;;;10.27;;
36353;SDS011;22383;51.114;13.666;2023-05-07T04:28:09;28.33;;;9.60;;
36353;SDS011;22383;51.114;13.666;2023-05-07T04:30:41;23.52;;;8.90;;
36353;SDS011;22383;51.114;13.666;2023-05-07T04:33:13;25.02;;;9.07;;
36353;SDS011;22383;51.114;13.666;2023-05-07T04:35:51;23.67;;;8.93;;
36353;SDS011;22383;51.114;13.666;2023-05-07T04:38:19;22.88;;;9.38;;
36353;SDS011;22383;51.114;13.666;2023-05-07T04:40:50;26.92;;;10.27;;
36353;SDS011;22383;51.114;13.666;2023-05-07T04:43:23;29.45;;;9.90;;
36353;SDS011;22383;51.114;13.666;2023-05-07T04:48:24;28.23;;;9.73;;
36353;SDS011;22383;51.114;13.666;2023-05-07T04:50:54;24.58;;;9.23;;
36353;SDS011;22383;51.114;13.666;2023-05-07T04:53:22;23.35;;;9.57;;
36353;SDS011;22383;51.114;13.666;2023-05-07T04:55:54;28.73;;;9.65;;
36353;SDS011;22383;51.114;13.666;2023-05-07T04:58:26;19.73;;;8.25;;
36353;SDS011;22383;51.114;13.666;2023-05-07T05:00:54;32.22;;;8.75;;
36353;SDS011;22383;51.114;13.666;2023-05-07T05:03:21;23.90;;;7.82;;
36353;SDS011;22383;51.114;13.666;2023-05-07T05:05:49;22.15;;;9.48;;
36353;SDS011;22383;51.114;13.666;2023-05-07T05:08:23;22.98;;;7.75;;
36353;SDS011;22383;51.114;13.666;2023-05-07T05:10:50;23.42;;;8.95;;
36353;SDS011;22383;51.114;13.666;2023-05-07T05:13:17;22.50;;;8.45;;
36353;SDS011;22383;51.114;13.666;2023-05-07T05:15:46;23.27;;;8.48;;
36353;SDS011;22383;51.114;13.666;2023-05-07T05:18:13;17.50;;;7.00;;
36353;SDS011;22383;51.114;13.666;2023-05-07T05:20:41;16.48;;;7.40;;
36353;SDS011;22383;51.114;13.666;2023-05-07T05:23:12;18.77;;;7.35;;
36353;SDS011;22383;51.114;13.666;2023-05-07T05:25:43;15.40;;;7.05;;
36353;SDS011;22383;51.114;13.666;2023-05-07T05:28:12;18.58;;;7.50;;
36353;SDS011;22383;51.114;13.666;2023-05-07T05:30:44;18.23;;;7.13;;
36353;SDS011;22383;51.114;13.666;2023-05-07T05:33:14;21.85;;;7.47;;
36353;SDS011;22383;51.114;13.666;2023-05-07T05:35:44;18.85;;;8.57;;
36353;SDS011;22383;51.114;13.666;2023-05-07T05:38:12;19.60;;;8.35;;
36353;SDS011;22383;51.114;13.666;2023-05-07T05:40:43;26.30;;;9.02;;
36353;SDS011;22383;51.114;13.666;2023-05-07T05:43:10;18.35;;;8.07;;
36353;SDS011;22383;51.114;13.666;2023-05-07T05:45:43;18.35;;;7.07;;
36353;SDS011;22383;51.114;13.666;2023-05-07T05:48:13;21.23;;;8.02;;
36353;SDS011;22383;51.114;13.666;2023-05-07T05:50:42;15.98;;;7.22;;
36353;SDS011;22383;51.114;13.666;2023-05-07T05:53:09;17.63;;;6.53;;
36353;SDS011;22383;51.114;13.666;2023-05-07T05:55:38;16.65;;;7.00;;
36353;SDS011;22383;51.114;13.666;2023-05-07T05:58:06;13.55;;;6.13;;
36353;SDS011;22383;51.114;13.666;2023-05-07T06:00:37;12.65;;;6.20;;
36353;SDS011;22383;51.114;13.666;2023-05-07T06:03:06;16.02;;;5.85;;
36353;SDS011;22383;51.114;13.666;2023-05-07T06:05:35;14.55;;;6.82;;
36353;SDS011;22383;51.114;13.666;2023-05-07T06:08:04;16.67;;;5.95;;
36353;SDS011;22383;51.114;13.666;2023-05-07T06:10:35;13.07;;;5.97;;
36353;SDS011;22383;51.114;13.666;2023-05-07T06:13:08;12.82;;;5.63;;
36353;SDS011;22383;51.114;13.666;2023-05-07T06:15:38;15.23;;;5.80;;
36353;SDS011;22383;51.114;13.666;2023-05-07T06:18:11;13.18;;;5.97;;
36353;SDS011;22383;51.114;13.666;2023-05-07T06:20:41;17.92;;;6.68;;
36353;SDS011;22383;51.114;13.666;2023-05-07T06:23:16;15.52;;;5.82;;
36353;SDS011;22383;51.114;13.666;2023-05-07T06:25:48;17.10;;;6.25;;
36353;SDS011;22383;51.114;13.666;2023-05-07T06:28:33;16.60;;;6.03;;
36353;SDS011;22383;51.114;13.666;2023-05-07T06:31:17;13.90;;;6.18;;
36353;SDS011;22383;51.114;13.666;2023-05-07T06:33:59;14.85;;;5.03;;
36353;SDS011;22383;51.114;13.666;2023-05-07T06:36:32;8.18;;;4.22;;
36353;SDS011;22383;51.114;13.666;2023-05-07T06:41:39;13.38;;;5.78;;
36353;SDS011;22383;51.114;13.666;2023-05-07T06:44:22;11.07;;;4.40;;
36353;SDS011;22383;51.114;13.666;2023-05-07T06:47:18;14.43;;;5.68;;
36353;SDS011;22383;51.114;13.666;2023-05-07T06:49:52;12.68;;;5.18;;
36353;SDS011;22383;51.114;13.666;2023-05-07T06:52:26;11.65;;;5.15;;
36353;SDS011;22383;51.114;13.666;2023-05-07T06:54:58;12.32;;;5.45;;
36353;SDS011;22383;51.114;13.666;2023-05-07T06:57:26;9.32;;;5.07;;
36353;SDS011;22383;51.114;13.666;2023-05-07T06:59:55;13.95;;;5.75;;
36353;SDS011;22383;51.114;13.666;2023-05-07T07:02:23;10.23;;;5.38;;
36353;SDS011;22383;51.114;13.666;2023-05-07T07:04:50;13.90;;;6.28;;
36353;SDS011;22383;51.114;13.666;2023-05-07T07:07:20;14.55;;;5.20;;
36353;SDS011;22383;51.114;13.666;2023-05-07T07:09:49;11.38;;;5.43;;
36353;SDS011;22383;51.114;13.666;2023-05-07T07:12:18;11.63;;;5.82;;
36353;SDS011;22383;51.114;13.666;2023-05-07T07:14:45;11.48;;;6.05;;
36353;SDS011;22383;51.114;13.666;2023-05-07T07:17:14;12.18;;;5.18;;
36353;SDS011;22383;51.114;13.666;2023-05-07T07:19:41;13.35;;;5.43;;
36353;SDS011;22383;51.114;13.666;2023-05-07T07:22:08;12.40;;;4.90;;
36353;SDS011;22383;51.114;13.666;2023-05-07T07:24:37;11.93;;;5.47;;
36353;SDS011;22383;51.114;13.666;2023-05-07T07:27:09;10.48;;;4.55;;
36353;SDS011;22383;51.114;13.666;2023-05-07T07:29:39;8.15;;;3.97;;
36353;SDS011;22383;51.114;13.666;2023-05-07T07:32:07;9.45;;;4.53;;
36353;SDS011;22383;51.114;13.666;2023-05-07T07:34:35;8.88;;;4.05;;
36353;SDS011;22383;51.114;13.666;2023-05-07T07:37:02;7.95;;;3.85;;
36353;SDS011;22383;51.114;13.666;2023-05-07T07:39:34;11.55;;;3.50;;
36353;SDS011;22383;51.114;13.666;2023-05-07T07:42:02;8.57;;;4.70;;
36353;SDS011;22383;51.114;13.666;2023-05-07T07:44:32;7.60;;;3.45;;
36353;SDS011;22383;51.114;13.666;2023-05-07T07:47:06;5.10;;;3.05;;
36353;SDS011;22383;51.114;13.666;2023-05-07T07:49:34;6.13;;;3.80;;
36353;SDS011;22383;51.114;13.666;2023-05-07T07:52:05;8.75;;;3.63;;
36353;SDS011;22383;51.114;13.666;2023-05-07T07:54:34;8.10;;;3.67;;
36353;SDS011;22383;51.114;13.666;2023-05-07T07:57:03;6.93;;;3.75;;
36353;SDS011;22383;51.114;13.666;2023-05-07T07:59:32;7.93;;;3.97;;
36353;SDS011;22383;51.114;13.666;2023-05-07T08:02:00;5.32;;;3.00;;
36353;SDS011;22383;51.114;13.666;2023-05-07T08:04:29;6.85;;;3.53;;
36353;SDS011;22383;51.114;13.666;2023-05-07T08:07:06;10.02;;;3.67;;
36353;SDS011;22383;51.114;13.666;2023-05-07T08:09:37;6.05;;;3.67;;
36353;SDS011;22383;51.114;13.666;2023-05-07T08:12:06;4.82;;;3.30;;
36353;SDS011;22383;51.114;13.666;2023-05-07T08:14:35;5.05;;;3.08;;
36353;SDS011;22383;51.114;13.666;2023-05-07T08:17:05;8.73;;;3.85;;
36353;SDS011;22383;51.114;13.666;2023-05-07T08:19:33;6.15;;;3.08;;
36353;SDS011;22383;51.114;13.666;2023-05-07T08:22:04;6.88;;;3.72;;
36353;SDS011;22383;51.114;13.666;2023-05-07T08:24:33;6.45;;;2.92;;
36353;SDS011;22383;51.114;13.666;2023-05-07T08:29:28;6.55;;;4.03;;
36353;SDS011;22383;51.114;13.666;2023-05-07T08:31:55;7.72;;;3.50;;
36353;SDS011;22383;51.114;13.666;2023-05-07T08:34:23;8.90;;;3.17;;
36353;SDS011;22383;51.114;13.666;2023-05-07T08:36:52;7.30;;;3.58;;
36353;SDS011;22383;51.114;13.666;2023-05-07T08:39:22;6.90;;;3.53;;
36353;SDS011;22383;51.114;13.666;2023-05-07T08:41:55;8.40;;;4.20;;
36353;SDS011;22383;51.114;13.666;2023-05-07T08:44:26;7.55;;;3.55;;
36353;SDS011;22383;51.114;13.666;2023-05-07T08:46:57;5.28;;;2.92;;
36353;SDS011;22383;51.114;13.666;2023-05-07T08:49:27;5.63;;;3.15;;
36353;SDS011;22383;51.114;13.666;2023-05-07T08:51:55;7.97;;;3.63;;
36353;SDS011;22383;51.114;13.666;2023-05-07T08:54:29;7.95;;;3.92;;
36353;SDS011;22383;51.114;13.666;2023-05-07T08:56:59;11.02;;;4.18;;
36353;SDS011;22383;51.114;13.666;2023-05-07T08:59:28;12.25;;;5.53;;
36353;SDS011;22383;51.114;13.666;2023-05-07T09:01:57;8.25;;;4.05;;
36353;SDS011;22383;51.114;13.666;2023-05-07T09:04:28;6.25;;;3.92;;
36353;SDS011;22383;51.114;13.666;2023-05-07T09:07:04;7.53;;;3.63;;
36353;SDS011;22383;51.114;13.666;2023-05-07T09:09:37;8.32;;;4.45;;
36353;SDS011;22383;51.114;13.666;2023-05-07T09:12:06;9.70;;;4.00;;
36353;SDS011;22383;51.114;13.666;2023-05-07T09:14:37;9.65;;;4.65;;
36353;SDS011;22383;51.114;13.666;2023-05-07T09:17:06;8.15;;;4.43;;
36353;SDS011;22383;51.114;13.666;2023-05-07T09:19:34;9.73;;;4.38;;
36353;SDS011;22383;51.114;13.666;2023-05-07T09:22:05;6.68;;;3.83;;
36353;SDS011;22383;51.114;13.666;2023-05-07T09:24:51;13.20;;;5.38;;
36353;SDS011;22383;51.114;13.666;2023-05-07T09:27:22;9.35;;;4.20;;
36353;SDS011;22383;51.114;13.666;2023-05-07T09:29:53;10.07;;;4.85;;
36353;SDS011;22383;51.114;13.666;2023-05-07T09:32:20;12.55;;;5.50;;
36353;SDS011;22383;51.114;13.666;2023-05-07T09:34:47;11.35;;;4.82;;
36353;SDS011;22383;51.114;13.666;2023-05-07T09:37:21;8.57;;;4.57;;
36353;SDS011;22383;51.114;13.666;2023-05-07T09:39:51;11.25;;;4.70;;
36353;SDS011;22383;51.114;13.666;2023-05-07T09:42:25;10.85;;;5.13;;
36353;SDS011;22383;51.114;13.666;2023-05-07T09:44:58;10.63;;;5.03;;
36353;SDS011;22383;51.114;13.666;2023-05-07T09:47:32;10.63;;;4.70;;
36353;SDS011;22383;51.114;13.666;2023-05-07T09:50:02;9.05;;;4.55;;
36353;SDS011;22383;51.114;13.666;2023-05-07T09:52:32;10.13;;;5.40;;
36353;SDS011;22383;51.114;13.666;2023-05-07T09:55:10;12.02;;;5.20;;
36353;SDS011;22383;51.114;13.666;2023-05-07T09:58:02;8.60;;;4.20;;
36353;SDS011;22383;51.114;13.666;2023-05-07T10:00:33;8.48;;;4.88;;
36353;SDS011;22383;51.114;13.666;2023-05-07T10:03:09;9.48;;;4.78;;
36353;SDS011;22383;51.114;13.666;2023-05-07T10:06:01;10.60;;;5.15;;
36353;SDS011;22383;51.114;13.666;2023-05-07T10:08:30;11.07;;;6.05;;
36353;SDS011;22383;51.114;13.666;2023-05-07T10:11:01;11.30;;;5.60;;
36353;SDS011;22383;51.114;13.666;2023-05-07T10:13:30;13.23;;;5.90;;
36353;SDS011;22383;51.114;13.666;2023-05-07T10:16:02;9.98;;;4.68;;
36353;SDS011;22383;51.114;13.666;2023-05-07T10:18:42;9.82;;;5.35;;
36353;SDS011;22383;51.114;13.666;2023-05-07T10:21:17;9.95;;;5.30;;
36353;SDS011;22383;51.114;13.666;2023-05-07T10:23:51;10.68;;;4.65;;
36353;SDS011;22383;51.114;13.666;2023-05-07T10:26:32;10.85;;;4.72;;
36353;SDS011;22383;51.114;13.666;2023-05-07T10:29:07;10.48;;;4.85;;
36353;SDS011;22383;51.114;13.666;2023-05-07T10:34:37;14.10;;;5.72;;
36353;SDS011;22383;51.114;13.666;2023-05-07T10:37:08;10.00;;;4.40;;
36353;SDS011;22383;51.114;13.666;2023-05-07T10:39:37;9.65;;;4.65;;
36353;SDS011;22383;51.114;13.666;2023-05-07T10:42:11;11.45;;;5.07;;
36353;SDS011;22383;51.114;13.666;2023-05-07T10:44:44;15.60;;;5.70;;
36353;SDS011;22383;51.114;13.666;2023-05-07T10:47:18;10.50;;;4.55;;
36353;SDS011;22383;51.114;13.666;2023-05-07T10:52:23;8.90;;;4.30;;
36353;SDS011;22383;51.114;13.666;2023-05-07T11:01:25;9.88;;;4.70;;
36353;SDS011;22383;51.114;13.666;2023-05-07T11:05:18;7.50;;;4.05;;
36353;SDS011;22383;51.114;13.666;2023-05-07T11:08:03;10.93;;;5.05;;
36353;SDS011;22383;51.114;13.666;2023-05-07T11:13:47;7.43;;;4.57;;
36353;SDS011;22383;51.114;13.666;2023-05-07T11:16:39;7.70;;;3.70;;
36353;SDS011;22383;51.114;13.666;2023-05-07T11:19:47;7.38;;;4.10;;
36353;SDS011;22383;51.114;13.666;2023-05-07T11:25:09;6.80;;;3.83;;
36353;SDS011;22383;51.114;13.666;2023-05-07T11:27:41;10.25;;;3.80;;
36353;SDS011;22383;51.114;13.666;2023-05-07T11:30:16;6.88;;;3.55;;
36353;SDS011;22383;51.114;13.666;2023-05-07T11:32:47;7.68;;;3.80;;
36353;SDS011;22383;51.114;13.666;2023-05-07T11:35:22;7.22;;;3.67;;
36353;SDS011;22383;51.114;13.666;2023-05-07T11:37:57;6.70;;;3.72;;
36353;SDS011;22383;51.114;13.666;2023-05-07T11:40:28;7.22;;;4.13;;
36353;SDS011;22383;51.114;13.666;2023-05-07T11:42:58;7.03;;;3.80;;
36353;SDS011;22383;51.114;13.666;2023-05-07T11:45:25;7.97;;;4.82;;
36353;SDS011;22383;51.114;13.666;2023-05-07T11:47:55;6.90;;;3.90;;
36353;SDS011;22383;51.114;13.666;2023-05-07T11:50:22;7.75;;;4.25;;
36353;SDS011;22383;51.114;13.666;2023-05-07T11:52:50;7.43;;;3.88;;
36353;SDS011;22383;51.114;13.666;2023-05-07T11:55:20;8.13;;;3.83;;
36353;SDS011;22383;51.114;13.666;2023-05-07T11:57:55;8.18;;;3.88;;
36353;SDS011;22383;51.114;13.666;2023-05-07T12:02:50;6.15;;;3.42;;
36353;SDS011;22383;51.114;13.666;2023-05-07T12:05:17;4.88;;;3.40;;
36353;SDS011;22383;51.114;13.666;2023-05-07T12:07:55;13.30;;;3.78;;
36353;SDS011;22383;51.114;13.666;2023-05-07T12:10:23;7.18;;;3.65;;
36353;SDS011;22383;51.114;13.666;2023-05-07T12:12:54;6.80;;;3.90;;
36353;SDS011;22383;51.114;13.666;2023-05-07T12:15:22;6.78;;;4.03;;
36353;SDS011;22383;51.114;13.666;2023-05-07T12:17:53;8.70;;;4.88;;
36353;SDS011;22383;51.114;13.666;2023-05-07T12:20:26;9.63;;;4.00;;
36353;SDS011;22383;51.114;13.666;2023-05-07T12:22:55;9.00;;;5.03;;
36353;SDS011;22383;51.114;13.666;2023-05-07T12:25:24;7.25;;;3.35;;
36353;SDS011;22383;51.114;13.666;2023-05-07T12:27:54;6.00;;;3.45;;
36353;SDS011;22383;51.114;13.666;2023-05-07T12:30:23;9.32;;;4.18;;
36353;SDS011;22383;51.114;13.666;2023-05-07T12:32:54;9.35;;;4.07;;
36353;SDS011;22383;51.114;13.666;2023-05-07T12:35:29;8.02;;;4.03;;
36353;SDS011;22383;51.114;13.666;2023-05-07T12:38:11;7.75;;;3.45;;
36353;SDS011;22383;51.114;13.666;2023-05-07T12:40:49;6.43;;;3.80;;
36353;SDS011;22383;51.114;13.666;2023-05-07T12:43:20;7.80;;;3.45;;
36353;SDS011;22383;51.114;13.666;2023-05-07T12:45:49;6.72;;;3.42;;
36353;SDS011;22383;51.114;13.666;2023-05-07T12:48:18;9.38;;;3.95;;
36353;SDS011;22383;51.114;13.666;2023-05-07T12:50:49;8.85;;;4.07;;
36353;SDS011;22383;51.114;13.666;2023-05-07T12:53:20;7.55;;;4.18;;
36353;SDS011;22383;51.114;13.666;2023-05-07T12:55:53;6.35;;;4.10;;
36353;SDS011;22383;51.114;13.666;2023-05-07T12:58:29;6.22;;;3.88;;
36353;SDS011;22383;51.114;13.666;2023-05-07T13:01:07;8.23;;;4.15;;
36353;SDS011;22383;51.114;13.666;2023-05-07T13:03:38;7.07;;;3.92;;
36353;SDS011;22383;51.114;13.666;2023-05-07T13:06:09;8.45;;;3.72;;
36353;SDS011;22383;51.114;13.666;2023-05-07T13:08:40;5.60;;;3.35;;
36353;SDS011;22383;51.114;13.666;2023-05-07T13:11:17;9.73;;;4.25;;
36353;SDS011;22383;51.114;13.666;2023-05-07T13:13:47;6.25;;;3.65;;
36353;SDS011;22383;51.114;13.666;2023-05-07T13:16:20;7.25;;;4.05;;
36353;SDS011;22383;51.114;13.666;2023-05-07T13:18:48;6.72;;;4.20;;
36353;SDS011;22383;51.114;13.666;2023-05-07T13:21:16;6.53;;;3.13;;
36353;SDS011;22383;51.114;13.666;2023-05-07T13:23:43;5.10;;;3.10;;
36353;SDS011;22383;51.114;13.666;2023-05-07T13:26:13;6.65;;;3.67;;
36353;SDS011;22383;51.114;13.666;2023-05-07T13:28:53;4.47;;;3.10;;
36353;SDS011;22383;51.114;13.666;2023-05-07T13:31:26;4.82;;;2.83;;
36353;SDS011;22383;51.114;13.666;2023-05-07T13:33:59;4.30;;;3.10;;
36353;SDS011;22383;51.114;13.666;2023-05-07T13:36:27;7.97;;;3.63;;
36353;SDS011;22383;51.114;13.666;2023-05-07T13:38:56;5.32;;;3.20;;
36353;SDS011;22383;51.114;13.666;2023-05-07T13:41:26;10.52;;;2.65;;
36353;SDS011;22383;51.114;13.666;2023-05-07T13:44:17;5.75;;;3.35;;
36353;SDS011;22383;51.114;13.666;2023-05-07T13:46:47;8.88;;;3.35;;
36353;SDS011;22383;51.114;13.666;2023-05-07T13:49:15;4.80;;;3.10;;
36353;SDS011;22383;51.114;13.666;2023-05-07T13:54:17;7.68;;;3.85;;
36353;SDS011;22383;51.114;13.666;2023-05-07T13:56:48;8.65;;;4.47;;
36353;SDS011;22383;51.114;13.666;2023-05-07T14:01:47;4.28;;;3.00;;
36353;SDS011;22383;51.114;13.666;2023-05-07T14:04:15;7.03;;;3.80;;
36353;SDS011;22383;51.114;13.666;2023-05-07T14:06:49;7.10;;;3.20;;
36353;SDS011;22383;51.114;13.666;2023-05-07T14:09:17;4.78;;;2.83;;
36353;SDS011;22383;51.114;13.666;2023-05-07T14:11:47;5.93;;;3.42;;
36353;SDS011;22383;51.114;13.666;2023-05-07T14:14:20;5.70;;;3.30;;
36353;SDS011;22383;51.114;13.666;2023-05-07T14:19:17;6.28;;;3.42;;
36353;SDS011;22383;51.114;13.666;2023-05-07T14:21:44;7.22;;;3.30;;
36353;SDS011;22383;51.114;13.666;2023-05-07T14:24:12;3.95;;;2.90;;
36353;SDS011;22383;51.114;13.666;2023-05-07T14:26:39;4.55;;;3.13;;
36353;SDS011;22383;51.114;13.666;2023-05-07T14:29:08;6.40;;;2.78;;
36353;SDS011;22383;51.114;13.666;2023-05-07T14:31:36;4.88;;;3.38;;
36353;SDS011;22383;51.114;13.666;2023-05-07T14:34:04;6.40;;;3.38;;
36353;SDS011;22383;51.114;13.666;2023-05-07T14:36:45;4.65;;;3.13;;
36353;SDS011;22383;51.114;13.666;2023-05-07T14:39:15;5.82;;;2.67;;
36353;SDS011;22383;51.114;13.666;2023-05-07T14:41:45;5.07;;;3.05;;
36353;SDS011;22383;51.114;13.666;2023-05-07T14:44:16;5.35;;;3.10;;
36353;SDS011;22383;51.114;13.666;2023-05-07T14:46:53;7.50;;;2.95;;
36353;SDS011;22383;51.114;13.666;2023-05-07T14:49:28;4.82;;;3.05;;
36353;SDS011;22383;51.114;13.666;2023-05-07T14:51:57;5.32;;;3.22;;
36353;SDS011;22383;51.114;13.666;2023-05-07T14:54:33;7.22;;;3.20;;
36353;SDS011;22383;51.114;13.666;2023-05-07T14:57:08;5.47;;;3.30;;
36353;SDS011;22383;51.114;13.666;2023-05-07T14:59:39;7.95;;;3.88;;
36353;SDS011;22383;51.114;13.666;2023-05-07T15:02:19;5.65;;;3.83;;
36353;SDS011;22383;51.114;13.666;2023-05-07T15:04:47;5.35;;;2.97;;
36353;SDS011;22383;51.114;13.666;2023-05-07T15:07:17;5.82;;;3.42;;
36353;SDS011;22383;51.114;13.666;2023-05-07T15:09:46;7.72;;;3.47;;
36353;SDS011;22383;51.114;13.666;2023-05-07T15:12:25;6.82;;;3.92;;
36353;SDS011;22383;51.114;13.666;2023-05-07T15:14:52;4.38;;;2.97;;
36353;SDS011;22383;51.114;13.666;2023-05-07T15:17:20;7.93;;;3.22;;
36353;SDS011;22383;51.114;13.666;2023-05-07T15:19:51;5.10;;;3.50;;
36353;SDS011;22383;51.114;13.666;2023-05-07T15:22:21;5.45;;;3.22;;
36353;SDS011;22383;51.114;13.666;2023-05-07T15:24:51;6.53;;;3.60;;
36353;SDS011;22383;51.114;13.666;2023-05-07T15:27:18;7.90;;;4.07;;
36353;SDS011;22383;51.114;13.666;2023-05-07T15:29:51;6.18;;;4.10;;
36353;SDS011;22383;51.114;13.666;2023-05-07T15:32:24;6.80;;;3.40;;
36353;SDS011;22383;51.114;13.666;2023-05-07T15:37:21;6.53;;;3.85;;